Time;durP1;ratioP1;P1;durP2;ratioP2;P2;SDS_P1;SDS_P2;PMS_P1;PMS_P2;Temp;Humidity;BMP_temperature;BMP_pressure;BME280_temperature;BME280_humidity;BME280_pressure;Samples;Min_cycle;Max_cycle;Signal;HPM_P1;HPM_P2
2022/03/30 00:00:56;;;;;;;26.42;8.48;;;;;;;;;;4928268;29;20155;-72
2022/03/30 00:03:22;;;;;;;41.83;7.85;;;;;;;;;;4931486;29;20052;-72
2022/03/30 00:05:48;;;;;;;33.97;7.97;;;;;;;;;;4931432;29;20094;-74
2022/03/30 00:08:14;;;;;;;30.67;8.02;;;;;;;;;;4929939;29;20473;-72
2022/03/30 00:10:41;;;;;;;34.40;7.93;;;;;;;;;;4929768;29;20043;-71
2022/03/30 00:13:08;;;;;;;27.20;7.65;;;;;;;;;;4930490;29;20112;-68
2022/03/30 00:15:34;;;;;;;30.25;8.07;;;;;;;;;;4924284;29;20047;-77
2022/03/30 00:18:00;;;;;;;41.75;8.40;;;;;;;;;;4928757;29;20035;-73
2022/03/30 00:20:26;;;;;;;26.25;7.63;;;;;;;;;;4925607;29;20072;-72
2022/03/30 00:22:52;;;;;;;36.70;8.88;;;;;;;;;;4905178;29;22996;-68
2022/03/30 00:25:20;;;;;;;30.42;8.43;;;;;;;;;;4930525;29;20058;-70
2022/03/30 00:27:46;;;;;;;32.40;8.05;;;;;;;;;;4925722;29;20069;-68
2022/03/30 00:30:18;;;;;;;29.02;7.97;;;;;;;;;;4929719;29;20039;-71
2022/03/30 00:32:44;;;;;;;31.13;7.82;;;;;;;;;;4924963;29;20490;-70
2022/03/30 00:35:10;;;;;;;38.75;8.43;;;;;;;;;;4931558;29;20046;-73
2022/03/30 00:37:37;;;;;;;30.02;7.50;;;;;;;;;;4930963;29;20048;-73
2022/03/30 00:40:04;;;;;;;33.42;7.97;;;;;;;;;;4908773;29;20044;-71
2022/03/30 00:42:30;;;;;;;39.72;8.07;;;;;;;;;;4923722;29;20110;-70
2022/03/30 00:44:57;;;;;;;28.98;7.57;;;;;;;;;;4927792;29;20075;-73
2022/03/30 00:47:25;;;;;;;29.13;7.10;;;;;;;;;;4929795;29;20104;-69
2022/03/30 00:49:53;;;;;;;23.92;7.55;;;;;;;;;;4928988;29;20051;-68
2022/03/30 00:52:20;;;;;;;31.13;7.00;;;;;;;;;;4929215;29;20044;-68
2022/03/30 00:54:49;;;;;;;35.28;7.20;;;;;;;;;;4923486;29;20100;-69
2022/03/30 00:57:21;;;;;;;32.15;6.93;;;;;;;;;;4924927;29;20109;-68
2022/03/30 00:59:47;;;;;;;33.33;7.53;;;;;;;;;;4921372;29;20059;-73
2022/03/30 01:02:14;;;;;;;37.58;8.02;;;;;;;;;;4926507;29;20052;-72
2022/03/30 01:04:40;;;;;;;35.00;7.35;;;;;;;;;;4928309;29;20368;-71
2022/03/30 01:07:06;;;;;;;29.40;7.90;;;;;;;;;;4930463;29;20062;-69
2022/03/30 01:09:32;;;;;;;24.70;7.07;;;;;;;;;;4931081;29;20106;-71
2022/03/30 01:11:58;;;;;;;29.20;7.40;;;;;;;;;;4929379;29;20064;-70
2022/03/30 01:14:24;;;;;;;26.38;7.68;;;;;;;;;;4926405;29;20527;-77
2022/03/30 01:16:51;;;;;;;29.08;7.80;;;;;;;;;;4920378;29;20058;-69
2022/03/30 01:19:17;;;;;;;29.65;8.25;;;;;;;;;;4927673;29;20059;-76
2022/03/30 01:21:45;;;;;;;39.85;7.70;;;;;;;;;;4912095;29;20047;-71
2022/03/30 01:24:13;;;;;;;31.38;8.23;;;;;;;;;;4929336;29;20051;-70
2022/03/30 01:26:41;;;;;;;30.55;8.23;;;;;;;;;;4929219;29;20421;-73
2022/03/30 01:34:38;;;;;;;31.92;7.97;;;;;;;;;;4922858;29;19935;-68
2022/03/30 01:37:06;;;;;;;33.05;7.65;;;;;;;;;;4928441;29;20052;-78
2022/03/30 01:39:33;;;;;;;32.75;8.65;;;;;;;;;;4926486;29;20043;-72
2022/03/30 01:41:59;;;;;;;32.42;8.25;;;;;;;;;;4927621;29;20059;-70
2022/03/30 01:44:25;;;;;;;35.95;8.45;;;;;;;;;;4924730;29;20052;-70
2022/03/30 01:46:52;;;;;;;31.30;8.15;;;;;;;;;;4927139;29;20047;-71
2022/03/30 01:49:21;;;;;;;31.67;7.75;;;;;;;;;;4925214;29;20328;-69
2022/03/30 01:51:51;;;;;;;32.58;8.25;;;;;;;;;;4930165;29;20122;-70
2022/03/30 01:54:20;;;;;;;29.20;8.68;;;;;;;;;;4923225;29;20071;-70
2022/03/30 01:56:46;;;;;;;33.08;8.30;;;;;;;;;;4927672;29;20130;-69
2022/03/30 01:59:13;;;;;;;34.63;8.40;;;;;;;;;;4929953;29;20055;-69
2022/03/30 02:01:40;;;;;;;31.38;7.60;;;;;;;;;;4926464;29;20050;-68
2022/03/30 02:04:08;;;;;;;44.92;8.70;;;;;;;;;;4927057;29;20513;-68
2022/03/30 02:06:36;;;;;;;33.53;8.32;;;;;;;;;;4929754;29;20059;-79
2022/03/30 02:09:03;;;;;;;29.05;8.02;;;;;;;;;;4929812;29;20062;-71
2022/03/30 02:11:29;;;;;;;28.80;7.97;;;;;;;;;;4924944;29;20577;-74
2022/03/30 02:13:56;;;;;;;35.28;8.50;;;;;;;;;;4927571;29;20052;-69
2022/03/30 02:16:22;;;;;;;31.67;8.68;;;;;;;;;;4921065;29;20058;-73
2022/03/30 02:18:48;;;;;;;37.95;9.15;;;;;;;;;;4926106;29;20051;-68
2022/03/30 02:21:15;;;;;;;24.27;8.10;;;;;;;;;;4923330;29;20039;-69
2022/03/30 02:23:42;;;;;;;29.08;8.77;;;;;;;;;;4928368;29;20063;-74
2022/03/30 02:26:07;;;;;;;32.58;9.13;;;;;;;;;;4927569;29;20051;-68
2022/03/30 02:28:34;;;;;;;33.47;9.10;;;;;;;;;;4929041;29;20055;-72
2022/03/30 02:31:00;;;;;;;37.03;9.73;;;;;;;;;;4927922;29;20050;-68
2022/03/30 02:33:26;;;;;;;34.17;9.38;;;;;;;;;;4923678;29;20067;-71
2022/03/30 02:35:53;;;;;;;34.47;9.32;;;;;;;;;;4933692;29;20055;-71
2022/03/30 02:38:19;;;;;;;34.30;9.50;;;;;;;;;;4932958;29;20056;-73
2022/03/30 02:40:46;;;;;;;35.17;9.57;;;;;;;;;;4933029;29;20515;-68
2022/03/30 02:43:14;;;;;;;27.77;9.50;;;;;;;;;;4926938;29;20195;-71
2022/03/30 02:45:39;;;;;;;36.03;9.30;;;;;;;;;;4927777;29;20074;-70
2022/03/30 02:48:23;;;;;;;29.33;9.57;;;;;;;;;;4920562;29;20191;-69
2022/03/30 02:50:51;;;;;;;36.53;9.75;;;;;;;;;;4925854;29;20048;-68
2022/03/30 02:53:18;;;;;;;34.30;8.95;;;;;;;;;;4927459;29;20060;-69
2022/03/30 02:55:45;;;;;;;44.08;9.63;;;;;;;;;;4926479;29;20048;-74
2022/03/30 02:58:11;;;;;;;35.13;10.07;;;;;;;;;;4926950;29;20039;-69
2022/03/30 03:00:41;;;;;;;38.95;10.70;;;;;;;;;;4926191;29;20126;-68
2022/03/30 03:03:08;;;;;;;33.03;10.00;;;;;;;;;;4928675;29;20044;-75
2022/03/30 03:05:35;;;;;;;36.42;10.50;;;;;;;;;;4925839;29;20055;-70
2022/03/30 03:08:01;;;;;;;37.35;9.90;;;;;;;;;;4929943;29;20047;-69
2022/03/30 03:10:28;;;;;;;30.38;10.68;;;;;;;;;;4926964;29;20048;-68
2022/03/30 03:12:54;;;;;;;32.67;10.00;;;;;;;;;;4929338;29;20052;-70
2022/03/30 03:15:21;;;;;;;31.35;9.70;;;;;;;;;;4925457;29;20055;-69
2022/03/30 03:17:47;;;;;;;44.65;10.75;;;;;;;;;;4926860;29;20058;-73
2022/03/30 03:20:13;;;;;;;33.08;10.23;;;;;;;;;;4924014;29;20135;-69
2022/03/30 03:22:39;;;;;;;39.35;10.40;;;;;;;;;;4925224;29;20048;-69
2022/03/30 03:25:06;;;;;;;47.88;10.70;;;;;;;;;;4925825;29;20051;-72
2022/03/30 03:27:33;;;;;;;25.33;9.35;;;;;;;;;;4925038;29;20498;-70
2022/03/30 03:29:59;;;;;;;37.42;9.88;;;;;;;;;;4922658;29;20146;-73
2022/03/30 03:32:25;;;;;;;35.85;10.30;;;;;;;;;;4925535;29;20086;-69
2022/03/30 03:34:52;;;;;;;31.48;9.88;;;;;;;;;;4931573;29;20476;-78
2022/03/30 03:37:18;;;;;;;41.22;10.95;;;;;;;;;;4928918;29;20520;-67
2022/03/30 03:39:45;;;;;;;34.63;10.68;;;;;;;;;;4932248;29;20044;-75
2022/03/30 03:42:11;;;;;;;29.88;8.85;;;;;;;;;;4931278;29;20051;-68
2022/03/30 03:44:37;;;;;;;28.02;8.48;;;;;;;;;;4909719;29;20180;-67
2022/03/30 03:47:03;;;;;;;29.95;11.25;;;;;;;;;;4930480;29;20142;-69
2022/03/30 03:49:29;;;;;;;30.85;8.80;;;;;;;;;;4930866;29;20438;-70
2022/03/30 03:51:56;;;;;;;25.60;8.70;;;;;;;;;;4931516;29;20533;-70
2022/03/30 03:54:21;;;;;;;30.58;9.30;;;;;;;;;;4932035;29;20215;-68
2022/03/30 03:56:47;;;;;;;29.17;10.00;;;;;;;;;;4931716;29;20051;-75
2022/03/30 03:59:13;;;;;;;47.78;10.23;;;;;;;;;;4920880;29;20126;-69
2022/03/30 04:01:39;;;;;;;33.28;10.23;;;;;;;;;;4924006;29;20118;-69
2022/03/30 04:04:06;;;;;;;34.70;10.82;;;;;;;;;;4929878;29;20110;-68
2022/03/30 04:06:32;;;;;;;34.13;9.55;;;;;;;;;;4930340;29;20422;-71
2022/03/30 04:08:58;;;;;;;42.17;9.98;;;;;;;;;;4926695;29;20093;-68
2022/03/30 04:11:25;;;;;;;28.02;10.10;;;;;;;;;;4927225;29;20486;-68
2022/03/30 04:13:50;;;;;;;34.88;10.63;;;;;;;;;;4926871;29;20051;-69
2022/03/30 04:16:17;;;;;;;38.72;10.52;;;;;;;;;;4928694;29;20047;-71
2022/03/30 04:18:43;;;;;;;39.47;10.07;;;;;;;;;;4930783;29;20047;-74
2022/03/30 04:21:10;;;;;;;29.83;10.57;;;;;;;;;;4929079;29;20044;-74
2022/03/30 04:23:36;;;;;;;38.33;10.10;;;;;;;;;;4913472;29;20146;-70
2022/03/30 04:26:03;;;;;;;27.05;9.43;;;;;;;;;;4928911;29;20082;-70
2022/03/30 04:28:30;;;;;;;25.50;9.07;;;;;;;;;;4925628;29;20430;-68
2022/03/30 04:30:55;;;;;;;32.97;9.73;;;;;;;;;;4923224;29;20044;-67
2022/03/30 04:33:23;;;;;;;31.73;9.43;;;;;;;;;;4926804;29;20048;-69
2022/03/30 04:35:49;;;;;;;44.38;11.68;;;;;;;;;;4926830;29;20359;-71
2022/03/30 04:38:14;;;;;;;35.53;9.90;;;;;;;;;;4905872;29;20936;-69
2022/03/30 04:40:41;;;;;;;33.88;10.82;;;;;;;;;;4919661;29;20496;-68
2022/03/30 04:43:07;;;;;;;36.83;10.68;;;;;;;;;;4919969;29;20580;-67
2022/03/30 04:45:33;;;;;;;41.25;10.10;;;;;;;;;;4924283;29;20183;-70
2022/03/30 04:47:59;;;;;;;33.83;10.68;;;;;;;;;;4924865;29;20131;-69
2022/03/30 04:50:26;;;;;;;44.97;12.10;;;;;;;;;;4922190;29;20355;-72
2022/03/30 04:52:52;;;;;;;35.40;10.98;;;;;;;;;;4924782;29;20470;-71
2022/03/30 04:55:19;;;;;;;29.38;10.98;;;;;;;;;;4923294;29;20501;-74
2022/03/30 04:57:45;;;;;;;42.05;11.43;;;;;;;;;;4922673;29;20139;-69
2022/03/30 05:00:12;;;;;;;42.50;12.43;;;;;;;;;;4923298;29;20587;-69
2022/03/30 05:02:40;;;;;;;41.55;10.88;;;;;;;;;;4921366;29;20061;-69
2022/03/30 05:05:10;;;;;;;30.67;11.05;;;;;;;;;;4922963;29;20521;-68
2022/03/30 05:07:37;;;;;;;37.50;11.55;;;;;;;;;;4918831;29;20900;-69
2022/03/30 05:10:05;;;;;;;42.33;12.88;;;;;;;;;;4922785;29;20050;-73
2022/03/30 05:12:32;;;;;;;44.60;11.63;;;;;;;;;;4922931;29;20092;-73
2022/03/30 05:14:57;;;;;;;31.10;11.55;;;;;;;;;;4926027;29;20043;-76
2022/03/30 05:17:24;;;;;;;40.03;12.48;;;;;;;;;;4924966;29;20417;-72
2022/03/30 05:19:50;;;;;;;29.75;13.15;;;;;;;;;;4922967;29;20478;-75
2022/03/30 05:22:16;;;;;;;54.83;14.07;;;;;;;;;;4921843;29;20158;-68
2022/03/30 05:24:42;;;;;;;38.33;13.60;;;;;;;;;;4906682;29;20066;-68
2022/03/30 05:27:09;;;;;;;41.95;13.82;;;;;;;;;;4921442;29;20106;-75
2022/03/30 05:29:36;;;;;;;36.88;12.68;;;;;;;;;;4924184;29;20135;-68
2022/03/30 05:32:03;;;;;;;45.40;13.63;;;;;;;;;;4921821;29;20048;-74
2022/03/30 05:34:30;;;;;;;43.38;13.50;;;;;;;;;;4923506;29;20405;-72
2022/03/30 05:36:58;;;;;;;39.63;13.55;;;;;;;;;;4920116;29;20058;-72
2022/03/30 05:39:24;;;;;;;39.38;13.88;;;;;;;;;;4922325;29;20048;-74
2022/03/30 05:41:52;;;;;;;38.28;14.18;;;;;;;;;;4925936;29;20481;-75
2022/03/30 05:44:19;;;;;;;57.65;15.55;;;;;;;;;;4922831;29;20516;-71
2022/03/30 05:46:44;;;;;;;49.95;14.30;;;;;;;;;;4922137;29;20423;-77
2022/03/30 05:49:11;;;;;;;31.30;13.65;;;;;;;;;;4918498;29;20063;-69
2022/03/30 05:51:37;;;;;;;42.50;13.48;;;;;;;;;;4922603;29;20048;-76
2022/03/30 05:54:05;;;;;;;43.65;13.68;;;;;;;;;;4923531;29;20047;-69
2022/03/30 05:59:15;;;;;;;39.55;13.00;;;;;;;;;;4919504;29;20055;-70
2022/03/30 06:01:42;;;;;;;44.72;13.55;;;;;;;;;;4915623;29;20047;-72
2022/03/30 06:04:08;;;;;;;34.60;13.20;;;;;;;;;;4921567;29;20098;-73
2022/03/30 06:06:34;;;;;;;44.08;13.07;;;;;;;;;;4900704;29;20062;-69
2022/03/30 06:09:06;;;;;;;47.97;13.30;;;;;;;;;;4922866;29;20051;-77
2022/03/30 06:11:32;;;;;;;41.40;13.30;;;;;;;;;;4905571;29;20075;-70
2022/03/30 06:13:58;;;;;;;41.60;14.38;;;;;;;;;;4924921;29;20560;-73
2022/03/30 06:16:27;;;;;;;45.00;13.80;;;;;;;;;;4923111;29;20082;-76
2022/03/30 06:18:54;;;;;;;37.83;13.82;;;;;;;;;;4918287;29;20156;-76
2022/03/30 06:21:21;;;;;;;45.45;14.45;;;;;;;;;;4924910;29;20060;-73
2022/03/30 06:23:47;;;;;;;47.40;13.80;;;;;;;;;;4921519;29;20059;-80
2022/03/30 06:26:13;;;;;;;42.53;14.25;;;;;;;;;;4922607;29;20141;-75
2022/03/30 06:28:39;;;;;;;45.10;14.23;;;;;;;;;;4923676;29;20066;-70
2022/03/30 06:31:05;;;;;;;49.72;13.15;;;;;;;;;;4920810;29;20044;-76
2022/03/30 06:33:31;;;;;;;36.47;12.85;;;;;;;;;;4921374;29;20072;-76
2022/03/30 06:35:57;;;;;;;46.13;14.18;;;;;;;;;;4923409;29;20048;-79
2022/03/30 06:38:23;;;;;;;34.88;12.23;;;;;;;;;;4921386;29;20047;-77
2022/03/30 06:40:49;;;;;;;42.28;12.48;;;;;;;;;;4922700;29;20055;-68
2022/03/30 06:43:30;;;;;;;48.88;15.00;;;;;;;;;;4900506;29;20044;-74
2022/03/30 06:45:56;;;;;;;41.83;13.30;;;;;;;;;;4918816;29;20051;-73
2022/03/30 06:48:22;;;;;;;40.60;12.50;;;;;;;;;;4919842;29;20050;-73
2022/03/30 06:50:48;;;;;;;33.05;12.00;;;;;;;;;;4921665;29;20051;-75
2022/03/30 06:53:14;;;;;;;38.13;11.82;;;;;;;;;;4924227;29;20379;-69
2022/03/30 06:56:32;;;;;;;39.67;12.65;;;;;;;;;;4920315;29;20043;-71
2022/03/30 06:58:58;;;;;;;45.33;12.20;;;;;;;;;;4920102;29;20223;-71
2022/03/30 07:01:24;;;;;;;43.05;10.85;;;;;;;;;;4922822;29;20044;-79
2022/03/30 07:03:53;;;;;;;38.15;11.05;;;;;;;;;;4922214;29;20127;-78
2022/03/30 07:06:19;;;;;;;43.95;10.80;;;;;;;;;;4924295;29;20437;-74
2022/03/30 07:11:30;;;;;;;47.80;10.80;;;;;;;;;;4927115;29;20454;-80
2022/03/30 07:13:57;;;;;;;44.60;10.13;;;;;;;;;;4925821;29;20106;-80
2022/03/30 07:16:23;;;;;;;35.03;10.00;;;;;;;;;;4927482;29;20050;-79
2022/03/30 07:18:50;;;;;;;34.17;10.30;;;;;;;;;;4924196;29;20056;-71
2022/03/30 07:21:16;;;;;;;52.58;11.48;;;;;;;;;;4921775;29;20052;-73
2022/03/30 07:23:42;;;;;;;53.08;11.38;;;;;;;;;;4923023;29;20047;-70
2022/03/30 07:26:08;;;;;;;31.30;9.88;;;;;;;;;;4906866;29;20056;-78
2022/03/30 07:28:37;;;;;;;37.88;8.82;;;;;;;;;;4921947;29;20078;-73
2022/03/30 07:31:03;;;;;;;33.60;9.23;;;;;;;;;;4924888;29;20564;-73
2022/03/30 07:33:32;;;;;;;37.53;9.15;;;;;;;;;;4921298;29;20479;-77
2022/03/30 07:35:58;;;;;;;33.60;9.82;;;;;;;;;;4920776;29;20134;-79
2022/03/30 07:38:24;;;;;;;40.10;9.18;;;;;;;;;;4920687;29;20044;-74
2022/03/30 07:40:51;;;;;;;35.38;9.43;;;;;;;;;;4923559;29;20477;-75
2022/03/30 07:43:18;;;;;;;33.72;8.48;;;;;;;;;;4924763;29;20147;-73
2022/03/30 07:45:44;;;;;;;35.97;8.77;;;;;;;;;;4907760;29;20736;-75
2022/03/30 07:48:12;;;;;;;31.83;9.05;;;;;;;;;;4921242;29;20258;-74
2022/03/30 07:50:38;;;;;;;29.52;10.30;;;;;;;;;;4919551;29;20047;-69
2022/03/30 07:53:07;;;;;;;46.53;11.95;;;;;;;;;;4915419;29;20047;-74
2022/03/30 07:55:34;;;;;;;36.17;10.93;;;;;;;;;;4919758;29;20051;-69
2022/03/30 07:58:01;;;;;;;35.67;10.90;;;;;;;;;;4922531;29;20056;-74
2022/03/30 08:00:27;;;;;;;37.67;11.48;;;;;;;;;;4923474;29;20409;-76
2022/03/30 08:02:53;;;;;;;30.13;10.55;;;;;;;;;;4922342;29;20063;-76
2022/03/30 08:05:21;;;;;;;46.08;12.02;;;;;;;;;;4925257;29;20062;-76
2022/03/30 08:07:49;;;;;;;56.55;10.95;;;;;;;;;;4920845;29;20595;-75
2022/03/30 08:10:15;;;;;;;33.05;11.07;;;;;;;;;;4905795;29;20055;-69
2022/03/30 08:12:42;;;;;;;46.28;10.90;;;;;;;;;;4920334;29;20340;-76
2022/03/30 08:15:09;;;;;;;43.75;10.40;;;;;;;;;;4924025;29;20623;-69
2022/03/30 08:17:36;;;;;;;35.08;9.57;;;;;;;;;;4921557;29;20047;-72
2022/03/30 08:20:03;;;;;;;57.28;11.00;;;;;;;;;;4917710;29;20465;-73
2022/03/30 08:22:29;;;;;;;30.00;9.10;;;;;;;;;;4913899;29;20706;-76
2022/03/30 08:24:57;;;;;;;35.00;9.75;;;;;;;;;;4918678;29;20079;-78
2022/03/30 08:27:25;;;;;;;34.38;10.55;;;;;;;;;;4924110;29;20680;-75
2022/03/30 08:29:53;;;;;;;36.70;9.77;;;;;;;;;;4926582;29;20600;-72
2022/03/30 08:32:21;;;;;;;37.20;9.25;;;;;;;;;;4922119;29;20044;-73
2022/03/30 08:34:48;;;;;;;36.47;8.75;;;;;;;;;;4926098;29;20078;-69
2022/03/30 08:37:15;;;;;;;32.28;8.93;;;;;;;;;;4918680;29;20115;-80
2022/03/30 08:39:41;;;;;;;41.78;9.52;;;;;;;;;;4920860;29;20162;-74
2022/03/30 08:42:09;;;;;;;31.77;9.82;;;;;;;;;;4927022;29;20067;-69
2022/03/30 08:44:36;;;;;;;36.95;9.15;;;;;;;;;;4923843;29;20043;-69
2022/03/30 08:47:06;;;;;;;33.28;9.20;;;;;;;;;;4920955;29;20083;-77
2022/03/30 08:49:33;;;;;;;29.52;9.02;;;;;;;;;;4924709;29;20382;-75
2022/03/30 08:52:02;;;;;;;38.67;9.75;;;;;;;;;;4924088;29;20086;-74
2022/03/30 08:54:27;;;;;;;41.40;8.77;;;;;;;;;;4911799;29;20043;-75
2022/03/30 08:56:54;;;;;;;36.65;8.63;;;;;;;;;;4922607;29;20719;-75
2022/03/30 08:59:22;;;;;;;31.35;8.60;;;;;;;;;;4921582;29;20402;-79
2022/03/30 09:01:49;;;;;;;33.72;8.93;;;;;;;;;;4925835;29;20050;-71
2022/03/30 09:04:17;;;;;;;40.15;8.93;;;;;;;;;;4908456;29;20056;-70
2022/03/30 09:06:53;;;;;;;29.42;8.45;;;;;;;;;;4925585;29;20138;-77
2022/03/30 09:09:32;;;;;;;34.55;8.10;;;;;;;;;;4923102;29;20119;-72
2022/03/30 09:12:00;;;;;;;36.03;9.13;;;;;;;;;;4924006;29;20135;-75
2022/03/30 09:14:32;;;;;;;31.65;9.98;;;;;;;;;;4925655;29;20099;-70
2022/03/30 09:17:00;;;;;;;33.70;8.40;;;;;;;;;;4927147;29;20161;-80
2022/03/30 09:19:27;;;;;;;27.77;7.47;;;;;;;;;;4927061;29;20055;-72
2022/03/30 09:21:58;;;;;;;31.88;7.40;;;;;;;;;;4922907;29;20485;-75
2022/03/30 09:24:27;;;;;;;40.40;9.27;;;;;;;;;;4922848;29;20051;-74
2022/03/30 09:26:54;;;;;;;30.42;8.57;;;;;;;;;;4922489;29;20059;-82
2022/03/30 09:29:22;;;;;;;39.33;8.40;;;;;;;;;;4921199;29;20074;-76
2022/03/30 09:31:52;;;;;;;35.50;8.70;;;;;;;;;;4922246;29;20048;-72
2022/03/30 09:34:19;;;;;;;39.47;9.00;;;;;;;;;;4921765;29;20051;-70
2022/03/30 09:36:46;;;;;;;36.65;8.48;;;;;;;;;;4923199;29;20183;-75
2022/03/30 09:39:34;;;;;;;28.35;8.57;;;;;;;;;;4921438;29;20732;-70
2022/03/30 09:42:02;;;;;;;31.77;7.97;;;;;;;;;;4925516;29;20055;-77
2022/03/30 09:44:30;;;;;;;30.60;8.20;;;;;;;;;;4921623;29;20103;-80
2022/03/30 09:46:57;;;;;;;37.13;8.32;;;;;;;;;;4925429;29;20047;-78
2022/03/30 09:49:32;;;;;;;37.90;8.63;;;;;;;;;;4920023;29;20383;-75
2022/03/30 09:51:58;;;;;;;33.53;7.95;;;;;;;;;;4925214;29;20047;-75
2022/03/30 09:54:42;;;;;;;35.08;8.13;;;;;;;;;;4924237;29;20052;-77
2022/03/30 09:57:16;;;;;;;34.63;8.48;;;;;;;;;;4921618;29;20058;-72
2022/03/30 10:00:01;;;;;;;;;;;;;;;;;;4924258;29;20059;-73
2022/03/30 10:02:30;;;;;;;25.58;5.65;;;;;;;;;;4920463;29;19930;-74
2022/03/30 10:04:57;;;;;;;26.58;7.45;;;;;;;;;;4924090;29;20094;-80
2022/03/30 10:07:23;;;;;;;32.10;7.43;;;;;;;;;;4922548;29;21650;-74
2022/03/30 10:09:49;;;;;;;28.48;7.03;;;;;;;;;;4925233;29;20047;-74
2022/03/30 10:12:17;;;;;;;46.25;8.10;;;;;;;;;;4924469;29;20065;-70
2022/03/30 10:14:50;;;;;;;31.13;7.82;;;;;;;;;;4926559;29;20060;-74
2022/03/30 10:17:18;;;;;;;28.38;6.63;;;;;;;;;;4920788;29;20071;-71
2022/03/30 10:19:46;;;;;;;48.42;7.90;;;;;;;;;;4924752;29;20047;-78
2022/03/30 10:22:46;;;;;;;42.88;7.07;;;;;;;;;;4924660;29;20564;-70
2022/03/30 10:25:47;;;;;;;30.50;6.85;;;;;;;;;;4923145;29;20163;-74
2022/03/30 10:28:24;;;;;;;35.40;6.90;;;;;;;;;;4921332;29;20144;-69
2022/03/30 10:30:55;;;;;;;31.38;6.68;;;;;;;;;;4922239;29;20584;-73
2022/03/30 10:33:29;;;;;;;26.75;6.22;;;;;;;;;;4922957;29;20056;-77
2022/03/30 10:35:56;;;;;;;27.35;6.03;;;;;;;;;;4922344;29;20434;-80
2022/03/30 10:38:22;;;;;;;29.85;7.13;;;;;;;;;;4921437;29;20059;-79
2022/03/30 10:41:04;;;;;;;36.28;6.32;;;;;;;;;;4925294;29;20055;-71
2022/03/30 10:43:31;;;;;;;32.35;7.60;;;;;;;;;;4911368;29;20071;-71
2022/03/30 10:45:59;;;;;;;28.40;5.88;;;;;;;;;;4927042;29;20159;-73
2022/03/30 10:48:34;;;;;;;22.55;5.82;;;;;;;;;;4926168;29;20039;-79
2022/03/30 10:51:18;;;;;;;33.33;5.65;;;;;;;;;;4925913;29;20070;-74
2022/03/30 10:53:46;;;;;;;27.05;6.88;;;;;;;;;;4927199;29;20059;-73
2022/03/30 10:56:15;;;;;;;24.92;6.20;;;;;;;;;;4924316;29;20060;-76
2022/03/30 10:58:50;;;;;;;35.65;6.97;;;;;;;;;;4923094;29;20067;-73
2022/03/30 11:01:28;;;;;;;35.40;7.53;;;;;;;;;;4927634;29;20425;-77
2022/03/30 11:04:02;;;;;;;26.50;5.93;;;;;;;;;;4925090;29;20412;-75
2022/03/30 11:06:30;;;;;;;35.65;7.55;;;;;;;;;;4924366;29;20064;-76
2022/03/30 11:08:58;;;;;;;32.35;6.38;;;;;;;;;;4923450;29;20090;-78
2022/03/30 11:11:24;;;;;;;26.80;6.60;;;;;;;;;;4924071;29;20068;-75
2022/03/30 11:14:41;;;;;;;30.35;6.43;;;;;;;;;;4924291;29;20062;-75
2022/03/30 11:17:09;;;;;;;40.95;6.93;;;;;;;;;;4906238;29;20056;-74
2022/03/30 11:19:47;;;;;;;32.03;7.07;;;;;;;;;;4923830;29;20094;-74
2022/03/30 11:22:26;;;;;;;27.63;6.80;;;;;;;;;;4924216;29;20184;-72
2022/03/30 11:25:19;;;;;;;38.80;7.30;;;;;;;;;;4926133;29;20540;-80
2022/03/30 11:28:05;;;;;;;26.20;6.03;;;;;;;;;;4922658;29;20441;-72
2022/03/30 11:30:37;;;;;;;22.92;6.35;;;;;;;;;;4925638;29;20490;-75
2022/03/30 11:33:19;;;;;;;27.38;5.85;;;;;;;;;;4924784;29;20063;-75
2022/03/30 11:35:48;;;;;;;30.42;6.97;;;;;;;;;;4923473;29;20176;-71
2022/03/30 11:38:21;;;;;;;32.17;6.43;;;;;;;;;;4921122;29;20062;-72
2022/03/30 11:40:49;;;;;;;24.75;6.70;;;;;;;;;;4924951;29;20051;-70
2022/03/30 11:43:19;;;;;;;31.92;6.57;;;;;;;;;;4925118;29;20156;-70
2022/03/30 11:45:46;;;;;;;23.92;6.50;;;;;;;;;;4925463;29;20579;-72
2022/03/30 11:48:13;;;;;;;27.77;6.10;;;;;;;;;;4924036;29;20048;-72
2022/03/30 11:50:43;;;;;;;26.38;6.00;;;;;;;;;;4926162;29;20047;-78
2022/03/30 11:53:13;;;;;;;38.05;7.53;;;;;;;;;;4923656;29;20118;-72
2022/03/30 11:55:59;;;;;;;38.88;7.20;;;;;;;;;;4925670;29;20056;-72
2022/03/30 11:58:35;;;;;;;34.63;7.55;;;;;;;;;;4921115;29;20177;-73
2022/03/30 12:01:09;;;;;;;40.17;7.47;;;;;;;;;;4923071;29;20064;-75
2022/03/30 12:03:36;;;;;;;42.67;6.90;;;;;;;;;;4925308;29;20150;-78
2022/03/30 12:06:04;;;;;;;29.25;7.55;;;;;;;;;;4929957;29;20298;-72
2022/03/30 12:08:49;;;;;;;33.83;7.53;;;;;;;;;;4923720;29;20046;-74
2022/03/30 12:11:19;;;;;;;41.17;7.68;;;;;;;;;;4928047;29;20056;-74
2022/03/30 12:13:52;;;;;;;27.77;8.27;;;;;;;;;;4923173;29;20528;-75
2022/03/30 12:16:20;;;;;;;29.33;7.73;;;;;;;;;;4925022;29;20102;-71
2022/03/30 12:18:50;;;;;;;32.90;8.10;;;;;;;;;;4904707;29;20398;-81
2022/03/30 12:21:30;;;;;;;29.73;7.35;;;;;;;;;;4926288;29;20158;-78
2022/03/30 12:23:57;;;;;;;33.88;7.28;;;;;;;;;;4926678;29;20316;-72
2022/03/30 12:26:25;;;;;;;44.67;8.10;;;;;;;;;;4928027;29;20162;-70
2022/03/30 12:29:00;;;;;;;37.40;8.10;;;;;;;;;;4923934;29;20095;-75
2022/03/30 12:31:26;;;;;;;40.55;7.03;;;;;;;;;;4925765;29;20079;-78
2022/03/30 12:33:52;;;;;;;40.28;7.63;;;;;;;;;;4924014;29;20077;-76
2022/03/30 12:36:20;;;;;;;31.17;7.53;;;;;;;;;;4925494;29;20473;-73
2022/03/30 12:38:50;;;;;;;36.78;7.40;;;;;;;;;;4921601;29;20061;-78
2022/03/30 12:41:23;;;;;;;35.05;7.68;;;;;;;;;;4924202;29;20051;-73
2022/03/30 12:44:01;;;;;;;34.70;7.40;;;;;;;;;;4924082;29;20056;-69
2022/03/30 12:46:32;;;;;;;35.97;6.95;;;;;;;;;;4925501;29;20062;-76
2022/03/30 12:49:08;;;;;;;36.10;7.82;;;;;;;;;;4923225;29;20048;-73
2022/03/30 12:51:36;;;;;;;47.03;8.40;;;;;;;;;;4921386;29;20060;-77
2022/03/30 12:54:04;;;;;;;30.60;7.18;;;;;;;;;;4923845;29;20512;-80
2022/03/30 12:56:31;;;;;;;30.08;7.10;;;;;;;;;;4925309;29;20437;-71
2022/03/30 12:59:04;;;;;;;34.85;9.15;;;;;;;;;;4921235;29;20481;-70
2022/03/30 13:01:35;;;;;;;33.35;6.43;;;;;;;;;;4926379;29;20055;-70
2022/03/30 13:04:16;;;;;;;30.38;7.28;;;;;;;;;;4904066;29;20131;-78
2022/03/30 13:06:42;;;;;;;34.30;6.85;;;;;;;;;;4916841;29;20063;-75
2022/03/30 13:09:12;;;;;;;29.75;6.03;;;;;;;;;;4920294;29;20055;-71
2022/03/30 13:11:43;;;;;;;35.92;7.63;;;;;;;;;;4922264;29;20438;-73
2022/03/30 13:14:11;;;;;;;27.45;6.22;;;;;;;;;;4925526;29;20047;-74
2022/03/30 13:16:37;;;;;;;29.90;7.00;;;;;;;;;;4921283;29;20166;-74
2022/03/30 13:19:06;;;;;;;24.83;6.20;;;;;;;;;;4921411;29;20139;-71
2022/03/30 13:21:36;;;;;;;36.10;6.68;;;;;;;;;;4925082;29;20619;-79
2022/03/30 13:24:14;;;;;;;29.73;6.95;;;;;;;;;;4922719;29;20082;-78
2022/03/30 13:26:42;;;;;;;32.03;6.47;;;;;;;;;;4923401;29;20048;-71
2022/03/30 13:29:08;;;;;;;45.08;6.47;;;;;;;;;;4920877;29;20194;-69
2022/03/30 13:31:42;;;;;;;29.48;6.18;;;;;;;;;;4921106;29;20075;-70
2022/03/30 13:34:10;;;;;;;26.95;6.18;;;;;;;;;;4922663;29;20094;-71
2022/03/30 13:36:38;;;;;;;36.03;5.72;;;;;;;;;;4923280;29;20146;-74
2022/03/30 13:39:05;;;;;;;36.55;6.40;;;;;;;;;;4919310;29;20106;-71
2022/03/30 13:41:32;;;;;;;31.33;7.03;;;;;;;;;;4921858;29;20070;-70
2022/03/30 13:43:58;;;;;;;22.65;6.70;;;;;;;;;;4921902;29;20142;-67
2022/03/30 13:46:24;;;;;;;29.90;6.20;;;;;;;;;;4922301;29;20417;-72
2022/03/30 13:48:51;;;;;;;27.60;6.55;;;;;;;;;;4921483;29;20056;-69
2022/03/30 13:51:17;;;;;;;33.80;6.82;;;;;;;;;;4921459;29;20102;-68
2022/03/30 13:53:43;;;;;;;30.63;6.72;;;;;;;;;;4922625;29;20051;-75
2022/03/30 13:56:10;;;;;;;29.30;6.43;;;;;;;;;;4922188;29;20059;-71
2022/03/30 13:58:37;;;;;;;31.63;6.80;;;;;;;;;;4922443;29;20062;-72
2022/03/30 14:01:05;;;;;;;24.60;6.35;;;;;;;;;;4924903;29;20513;-78
2022/03/30 14:03:32;;;;;;;24.98;6.47;;;;;;;;;;4926513;29;20059;-74
2022/03/30 14:05:59;;;;;;;29.33;6.03;;;;;;;;;;4923807;29;20177;-68
2022/03/30 14:08:25;;;;;;;26.88;6.20;;;;;;;;;;4920925;29;20052;-68
2022/03/30 14:10:55;;;;;;;28.35;6.30;;;;;;;;;;4923574;29;20059;-71
2022/03/30 14:13:22;;;;;;;31.25;6.97;;;;;;;;;;4922157;29;20143;-66
2022/03/30 14:15:49;;;;;;;28.48;7.25;;;;;;;;;;4919278;29;20054;-71
2022/03/30 14:18:17;;;;;;;25.92;6.30;;;;;;;;;;4920756;29;20079;-74
2022/03/30 14:20:45;;;;;;;27.17;7.20;;;;;;;;;;4921145;29;20048;-72
2022/03/30 14:23:11;;;;;;;36.83;7.40;;;;;;;;;;4919871;29;20115;-75
2022/03/30 14:25:38;;;;;;;31.20;7.32;;;;;;;;;;4920508;29;20054;-75
2022/03/30 14:28:06;;;;;;;24.42;5.88;;;;;;;;;;4919855;29;20062;-78
2022/03/30 14:30:32;;;;;;;29.48;6.25;;;;;;;;;;4920837;29;20102;-69
2022/03/30 14:33:00;;;;;;;27.23;7.55;;;;;;;;;;4920877;29;20055;-71
2022/03/30 14:35:29;;;;;;;35.22;6.93;;;;;;;;;;4919934;29;20062;-74
2022/03/30 14:37:56;;;;;;;36.38;6.95;;;;;;;;;;4921717;29;20541;-71
2022/03/30 14:40:22;;;;;;;31.65;7.47;;;;;;;;;;4917211;29;20074;-78
2022/03/30 14:42:48;;;;;;;31.63;7.38;;;;;;;;;;4919004;29;20066;-78
2022/03/30 14:45:15;;;;;;;30.67;6.32;;;;;;;;;;4920344;29;20168;-74